メインページ
METAR-TAF:

METAR-TAF

空港 :

ドバイ, アラブ首長国連邦

ドバイ国際空港

緯度: 25-15-10N, 経度: 055-21-52E, 海抜: 8m

現時点の気象観測

当レポートは56分前の05:00(UTC)に作成
の風 11kt
気温 37°C
湿度 40%
気圧 1002 hPa
視程10km以上
1,500メートル以下は雲なし、積乱雲なし

METAR: OMDB 200500Z 10011KT CAVOK 37/21 Q1002 NOSIG

時間: 09:56 (05:56 UTC)

予報

当レポートは1時間4分前の04:52(UTC)に作成
予報は20日の 06時(UTC)から 21日の 12時(UTC)まで有効
南東の風 12kt
視程: 8000m
20日の 10時(UTC)から 20日の 12時(UTC)まで徐々に
の風 12kt
20日の 13時(UTC)から 20日の 15時(UTC)まで徐々に
の風 7kt
21日の 09時(UTC)から 21日の 11時(UTC)まで徐々に
の風 13kt

TAF: OMDB 200452Z 2006/2112 13012KT 8000 NSC BECMG 2010/2012 36012KT BECMG 2013/2015 10007KT BECMG 2109/2111 36013KT

4,000以上の空港の気象観測と天気予報(METAR報とTAF報)

利用可能な観測所は地図上に黄色い丸と赤い丸で示す。

丸の上にカーソルを重ねると観測所名を参照できる。

次にクリックすると気象観測と天気予報を参照できる。

マップの切り替え:黒色「×」印の緑ボタンをクリックして拡大、「-」印の緑ボタンをクリックして縮小、緑色の三角印をクリックして隣りの地図に切り替え


METAR-TAF: